Clearwater, FL (33764)

10:03 AM EDT on August 20, 2014 (GMT -0400)
W4PG Wedgewood Estates | Change Station
CLOSE
Current Station
Personal Weather Station
Location: Clearwater, FL
Elevation: 33 ft
Nearby Weather Stations

Elev 33 ft 27.93 °N, 82.75 °W | Updated 3 seconds ago

Clear
Clear
84.9 °F
Feels Like 97 °F
N
0.0
Wind Variable Wind from SSW
Gusts 1.0 mph

Today
High -- | Low -- °F
--% Chance of Precip.
Yesterday
High -- | Low -- °F
Precip. -- in
7:03 AM 8:04 PM
Waning Crescent, 21% visible
Pressure 30.10 in
Visibility 10.0 miles
Clouds Scattered Clouds 2600 ft
Heat Index 97 °F
Dew Point 78 °F
Humidity 81%
Rainfall 0.00 in
Snow Depth Not available.
UV 4 out of 12
Pollen 4.20 out of 12
Air Quality Not available.
Flu Activity Not available.
METAR KPIE 201353Z VRB03KT 10SM SCT026 31/25 A3010 RMK AO2 SLP191 T03110250

More Conditions Fewer Conditions

Pressure 30.10 in
Visibility 10.0 miles
Clouds Scattered Clouds 2600 ft
Heat Index 97 °F
Dew Point 78 °F
Humidity 81%
Rainfall 0.00 in
Snow Depth Not available.
UV 4 out of 12
Pollen 4.20 out of 12
Air Quality Not available.
Flu Activity Not available.
METAR KPIE 201353Z VRB03KT 10SM SCT026 31/25 A3010 RMK AO2 SLP191 T03110250

More Conditions Fewer Conditions

10-Day Weather Forecast

Almanac

Astronomy

Aug. 20, 2014 Rise Set
Actual Time 7:03 AM EDT 8:04 PM EDT
Civil Twilight 6:39 AM EDT 8:28 PM EDT
Nautical Twilight 6:10 AM EDT 8:57 PM EDT
Astronomical Twilight 5:41 AM EDT 9:27 PM EDT
Moon 2:51 AM EDT 4:39 PM EDT
Length of Visible Light 13h 49m
Length of Day
13h 00m
Tomorrow will be 1m 30s shorter.
Waning Crescent, 21% of the Moon is Illuminated
Today
Waning Crescent
Aug 25
New
Sep 2
First Quarter
Sep 8
Full
Sep 15
Last Quarter

Today's Extremes

State Highs State Lows

Community

WunderPhotos

Upload Photos

1,745,639 photos uploaded!

Nearby

Air Quality

  Air Quality AQ Index Pollutant
Wednesday Good
PM2.5
Wednesday Good
OZONE

Snow Depth

Station Depth Elevation
No new snow has been reported.

Earthquake Activity

City Distance Mag. Time & Date
No recent earthquake activity has been reported nearby.
Minimum magnitude displayed is 2.5.

Coastal Water Temperatures

Place Temperature
St Petersburg, FL 89.1 °F
Old Port Tampa, FL 87.1 °F
McKay Bay Entrance, FL 88.0 °F

Nearby Weather Stations